sensor_id;sensor_type;location;lat;lon;timestamp;P1;durP1;ratioP1;P2;durP2;ratioP2
8861;SDS011;4799;50.996;4.754;2023-11-19T00:00:25;6.67;;;4.20;;
8861;SDS011;4799;50.996;4.754;2023-11-19T00:02:51;6.90;;;3.80;;
8861;SDS011;4799;50.996;4.754;2023-11-19T00:05:17;6.07;;;3.93;;
8861;SDS011;4799;50.996;4.754;2023-11-19T00:07:43;6.17;;;4.13;;
8861;SDS011;4799;50.996;4.754;2023-11-19T00:10:10;6.93;;;3.50;;
8861;SDS011;4799;50.996;4.754;2023-11-19T00:12:37;8.30;;;4.03;;
8861;SDS011;4799;50.996;4.754;2023-11-19T00:15:07;6.67;;;3.93;;
8861;SDS011;4799;50.996;4.754;2023-11-19T00:17:40;5.57;;;3.73;;
8861;SDS011;4799;50.996;4.754;2023-11-19T00:20:18;6.53;;;4.30;;
8861;SDS011;4799;50.996;4.754;2023-11-19T00:22:47;9.27;;;4.67;;
8861;SDS011;4799;50.996;4.754;2023-11-19T00:25:16;10.93;;;5.33;;
8861;SDS011;4799;50.996;4.754;2023-11-19T00:27:42;8.47;;;5.10;;
8861;SDS011;4799;50.996;4.754;2023-11-19T00:30:09;8.93;;;6.03;;
8861;SDS011;4799;50.996;4.754;2023-11-19T00:32:36;10.27;;;5.40;;
8861;SDS011;4799;50.996;4.754;2023-11-19T00:35:03;8.03;;;5.23;;
8861;SDS011;4799;50.996;4.754;2023-11-19T00:37:30;10.93;;;5.83;;
8861;SDS011;4799;50.996;4.754;2023-11-19T00:39:55;13.83;;;7.10;;
8861;SDS011;4799;50.996;4.754;2023-11-19T00:42:21;13.23;;;6.20;;
8861;SDS011;4799;50.996;4.754;2023-11-19T00:44:49;12.37;;;5.60;;
8861;SDS011;4799;50.996;4.754;2023-11-19T00:47:15;9.17;;;5.30;;
8861;SDS011;4799;50.996;4.754;2023-11-19T00:49:41;10.57;;;5.17;;
8861;SDS011;4799;50.996;4.754;2023-11-19T00:52:07;12.20;;;6.13;;
8861;SDS011;4799;50.996;4.754;2023-11-19T00:54:33;13.37;;;6.50;;
8861;SDS011;4799;50.996;4.754;2023-11-19T00:56:59;11.63;;;5.70;;
8861;SDS011;4799;50.996;4.754;2023-11-19T00:59:26;13.90;;;6.70;;
8861;SDS011;4799;50.996;4.754;2023-11-19T01:01:53;17.30;;;6.10;;
8861;SDS011;4799;50.996;4.754;2023-11-19T01:04:19;13.30;;;5.90;;
8861;SDS011;4799;50.996;4.754;2023-11-19T01:06:45;12.50;;;5.57;;
8861;SDS011;4799;50.996;4.754;2023-11-19T01:09:11;11.77;;;5.50;;
8861;SDS011;4799;50.996;4.754;2023-11-19T01:11:36;15.97;;;6.13;;
8861;SDS011;4799;50.996;4.754;2023-11-19T01:14:02;16.30;;;6.30;;
8861;SDS011;4799;50.996;4.754;2023-11-19T01:16:28;13.83;;;5.20;;
8861;SDS011;4799;50.996;4.754;2023-11-19T01:18:54;15.33;;;6.30;;
8861;SDS011;4799;50.996;4.754;2023-11-19T01:21:21;21.23;;;6.50;;
8861;SDS011;4799;50.996;4.754;2023-11-19T01:23:47;16.53;;;5.67;;
8861;SDS011;4799;50.996;4.754;2023-11-19T01:26:12;16.23;;;5.60;;
8861;SDS011;4799;50.996;4.754;2023-11-19T01:28:41;15.03;;;6.07;;
8861;SDS011;4799;50.996;4.754;2023-11-19T01:31:14;17.17;;;5.60;;
8861;SDS011;4799;50.996;4.754;2023-11-19T01:33:40;13.73;;;5.37;;
8861;SDS011;4799;50.996;4.754;2023-11-19T01:36:09;14.13;;;5.37;;
8861;SDS011;4799;50.996;4.754;2023-11-19T01:38:38;13.47;;;4.97;;
8861;SDS011;4799;50.996;4.754;2023-11-19T01:41:03;15.80;;;5.07;;
8861;SDS011;4799;50.996;4.754;2023-11-19T01:43:33;22.37;;;5.67;;
8861;SDS011;4799;50.996;4.754;2023-11-19T01:46:02;16.77;;;5.30;;
8861;SDS011;4799;50.996;4.754;2023-11-19T01:48:30;16.13;;;4.80;;
8861;SDS011;4799;50.996;4.754;2023-11-19T01:50:58;16.57;;;4.80;;
8861;SDS011;4799;50.996;4.754;2023-11-19T01:53:24;16.70;;;4.73;;
8861;SDS011;4799;50.996;4.754;2023-11-19T01:55:50;16.73;;;4.90;;
8861;SDS011;4799;50.996;4.754;2023-11-19T01:58:17;15.63;;;4.73;;
8861;SDS011;4799;50.996;4.754;2023-11-19T02:00:45;19.10;;;5.23;;
8861;SDS011;4799;50.996;4.754;2023-11-19T02:03:11;16.63;;;4.87;;
8861;SDS011;4799;50.996;4.754;2023-11-19T02:05:38;16.23;;;4.67;;
8861;SDS011;4799;50.996;4.754;2023-11-19T02:08:05;21.00;;;4.87;;
8861;SDS011;4799;50.996;4.754;2023-11-19T02:10:31;17.80;;;5.10;;
8861;SDS011;4799;50.996;4.754;2023-11-19T02:12:57;18.27;;;4.97;;
8861;SDS011;4799;50.996;4.754;2023-11-19T02:15:23;20.00;;;4.63;;
8861;SDS011;4799;50.996;4.754;2023-11-19T02:17:50;20.43;;;4.93;;
8861;SDS011;4799;50.996;4.754;2023-11-19T02:20:16;23.00;;;5.53;;
8861;SDS011;4799;50.996;4.754;2023-11-19T02:22:45;19.00;;;5.00;;
8861;SDS011;4799;50.996;4.754;2023-11-19T02:25:30;17.33;;;5.30;;
8861;SDS011;4799;50.996;4.754;2023-11-19T02:27:58;19.73;;;4.80;;
8861;SDS011;4799;50.996;4.754;2023-11-19T02:30:25;19.33;;;5.10;;
8861;SDS011;4799;50.996;4.754;2023-11-19T02:32:55;19.07;;;5.13;;
8861;SDS011;4799;50.996;4.754;2023-11-19T02:35:27;18.37;;;5.43;;
8861;SDS011;4799;50.996;4.754;2023-11-19T02:37:56;17.83;;;5.43;;
8861;SDS011;4799;50.996;4.754;2023-11-19T02:40:22;21.03;;;5.63;;
8861;SDS011;4799;50.996;4.754;2023-11-19T02:42:49;18.87;;;5.77;;
8861;SDS011;4799;50.996;4.754;2023-11-19T02:45:16;18.67;;;5.37;;
8861;SDS011;4799;50.996;4.754;2023-11-19T02:47:42;21.17;;;5.80;;
8861;SDS011;4799;50.996;4.754;2023-11-19T02:50:11;20.20;;;6.20;;
8861;SDS011;4799;50.996;4.754;2023-11-19T02:52:40;21.77;;;5.47;;
8861;SDS011;4799;50.996;4.754;2023-11-19T02:55:06;19.93;;;5.83;;
8861;SDS011;4799;50.996;4.754;2023-11-19T02:57:41;19.03;;;5.87;;
8861;SDS011;4799;50.996;4.754;2023-11-19T03:00:16;18.87;;;5.47;;
8861;SDS011;4799;50.996;4.754;2023-11-19T03:02:49;27.60;;;5.83;;
8861;SDS011;4799;50.996;4.754;2023-11-19T03:05:24;22.37;;;5.90;;
8861;SDS011;4799;50.996;4.754;2023-11-19T03:07:52;22.20;;;6.10;;
8861;SDS011;4799;50.996;4.754;2023-11-19T03:10:17;22.73;;;5.40;;
8861;SDS011;4799;50.996;4.754;2023-11-19T03:12:44;22.67;;;5.63;;
8861;SDS011;4799;50.996;4.754;2023-11-19T03:15:10;24.53;;;6.23;;
8861;SDS011;4799;50.996;4.754;2023-11-19T03:17:39;21.33;;;5.50;;
8861;SDS011;4799;50.996;4.754;2023-11-19T03:20:07;23.60;;;5.83;;
8861;SDS011;4799;50.996;4.754;2023-11-19T03:22:42;22.47;;;5.40;;
8861;SDS011;4799;50.996;4.754;2023-11-19T03:25:09;22.20;;;5.47;;
8861;SDS011;4799;50.996;4.754;2023-11-19T03:27:36;21.57;;;5.43;;
8861;SDS011;4799;50.996;4.754;2023-11-19T03:30:04;22.77;;;5.60;;
8861;SDS011;4799;50.996;4.754;2023-11-19T03:32:35;23.83;;;5.33;;
8861;SDS011;4799;50.996;4.754;2023-11-19T03:35:01;24.57;;;5.60;;
8861;SDS011;4799;50.996;4.754;2023-11-19T03:37:29;22.33;;;5.33;;
8861;SDS011;4799;50.996;4.754;2023-11-19T03:39:56;24.83;;;6.03;;
8861;SDS011;4799;50.996;4.754;2023-11-19T03:42:25;20.93;;;5.30;;
8861;SDS011;4799;50.996;4.754;2023-11-19T03:44:52;24.77;;;6.17;;
8861;SDS011;4799;50.996;4.754;2023-11-19T03:47:18;23.77;;;5.33;;
8861;SDS011;4799;50.996;4.754;2023-11-19T03:49:50;24.97;;;5.80;;
8861;SDS011;4799;50.996;4.754;2023-11-19T03:52:17;21.17;;;5.33;;
8861;SDS011;4799;50.996;4.754;2023-11-19T03:54:43;25.10;;;5.67;;
8861;SDS011;4799;50.996;4.754;2023-11-19T03:57:10;22.57;;;5.83;;
8861;SDS011;4799;50.996;4.754;2023-11-19T03:59:37;23.57;;;5.80;;
8861;SDS011;4799;50.996;4.754;2023-11-19T04:02:03;20.20;;;5.40;;
8861;SDS011;4799;50.996;4.754;2023-11-19T04:04:29;19.63;;;5.40;;
8861;SDS011;4799;50.996;4.754;2023-11-19T04:06:55;23.47;;;5.87;;
8861;SDS011;4799;50.996;4.754;2023-11-19T04:09:21;22.47;;;5.63;;
8861;SDS011;4799;50.996;4.754;2023-11-19T04:11:47;24.93;;;5.70;;
8861;SDS011;4799;50.996;4.754;2023-11-19T04:14:13;23.47;;;5.63;;
8861;SDS011;4799;50.996;4.754;2023-11-19T04:16:40;26.27;;;6.00;;
8861;SDS011;4799;50.996;4.754;2023-11-19T04:19:06;28.13;;;6.07;;
8861;SDS011;4799;50.996;4.754;2023-11-19T04:21:32;22.80;;;5.53;;
8861;SDS011;4799;50.996;4.754;2023-11-19T04:23:58;27.00;;;5.87;;
8861;SDS011;4799;50.996;4.754;2023-11-19T04:26:24;22.03;;;5.63;;
8861;SDS011;4799;50.996;4.754;2023-11-19T04:28:50;21.70;;;5.43;;
8861;SDS011;4799;50.996;4.754;2023-11-19T04:31:15;26.53;;;6.13;;
8861;SDS011;4799;50.996;4.754;2023-11-19T04:33:41;25.93;;;5.90;;
8861;SDS011;4799;50.996;4.754;2023-11-19T04:36:08;29.00;;;5.77;;
8861;SDS011;4799;50.996;4.754;2023-11-19T04:38:35;25.47;;;5.17;;
8861;SDS011;4799;50.996;4.754;2023-11-19T04:41:00;23.73;;;5.23;;
8861;SDS011;4799;50.996;4.754;2023-11-19T04:43:26;24.53;;;5.63;;
8861;SDS011;4799;50.996;4.754;2023-11-19T04:45:52;26.17;;;6.23;;
8861;SDS011;4799;50.996;4.754;2023-11-19T04:48:18;27.90;;;6.40;;
8861;SDS011;4799;50.996;4.754;2023-11-19T04:50:44;21.10;;;5.87;;
8861;SDS011;4799;50.996;4.754;2023-11-19T04:53:10;25.70;;;6.13;;
8861;SDS011;4799;50.996;4.754;2023-11-19T04:55:36;23.80;;;5.97;;
8861;SDS011;4799;50.996;4.754;2023-11-19T04:58:02;26.67;;;5.90;;
8861;SDS011;4799;50.996;4.754;2023-11-19T05:00:28;27.23;;;6.40;;
8861;SDS011;4799;50.996;4.754;2023-11-19T05:02:53;23.50;;;5.60;;
8861;SDS011;4799;50.996;4.754;2023-11-19T05:05:19;26.43;;;6.33;;
8861;SDS011;4799;50.996;4.754;2023-11-19T05:07:45;22.60;;;5.80;;
8861;SDS011;4799;50.996;4.754;2023-11-19T05:10:11;29.07;;;6.63;;
8861;SDS011;4799;50.996;4.754;2023-11-19T05:12:37;23.10;;;5.70;;
8861;SDS011;4799;50.996;4.754;2023-11-19T05:15:04;27.47;;;7.33;;
8861;SDS011;4799;50.996;4.754;2023-11-19T05:17:30;24.00;;;6.00;;
8861;SDS011;4799;50.996;4.754;2023-11-19T05:19:56;25.53;;;6.20;;
8861;SDS011;4799;50.996;4.754;2023-11-19T05:22:22;28.87;;;6.63;;
8861;SDS011;4799;50.996;4.754;2023-11-19T05:24:48;25.03;;;6.17;;
8861;SDS011;4799;50.996;4.754;2023-11-19T05:27:14;24.90;;;5.70;;
8861;SDS011;4799;50.996;4.754;2023-11-19T05:29:40;29.60;;;6.60;;
8861;SDS011;4799;50.996;4.754;2023-11-19T05:32:07;27.40;;;6.00;;
8861;SDS011;4799;50.996;4.754;2023-11-19T05:34:32;26.50;;;6.57;;
8861;SDS011;4799;50.996;4.754;2023-11-19T05:36:58;23.03;;;6.00;;
8861;SDS011;4799;50.996;4.754;2023-11-19T05:39:24;30.07;;;6.30;;
8861;SDS011;4799;50.996;4.754;2023-11-19T05:41:50;24.67;;;6.63;;
8861;SDS011;4799;50.996;4.754;2023-11-19T05:44:16;30.93;;;7.07;;
8861;SDS011;4799;50.996;4.754;2023-11-19T05:46:42;32.23;;;6.93;;
8861;SDS011;4799;50.996;4.754;2023-11-19T05:49:09;34.10;;;7.27;;
8861;SDS011;4799;50.996;4.754;2023-11-19T05:51:38;27.77;;;6.00;;
8861;SDS011;4799;50.996;4.754;2023-11-19T05:54:06;34.60;;;6.97;;
8861;SDS011;4799;50.996;4.754;2023-11-19T05:56:32;25.97;;;6.17;;
8861;SDS011;4799;50.996;4.754;2023-11-19T05:58:58;28.40;;;6.67;;
8861;SDS011;4799;50.996;4.754;2023-11-19T06:01:31;27.23;;;6.53;;
8861;SDS011;4799;50.996;4.754;2023-11-19T06:03:57;27.63;;;6.47;;
8861;SDS011;4799;50.996;4.754;2023-11-19T06:06:23;29.23;;;6.17;;
8861;SDS011;4799;50.996;4.754;2023-11-19T06:08:49;30.40;;;7.33;;
8861;SDS011;4799;50.996;4.754;2023-11-19T06:11:16;30.17;;;6.80;;
8861;SDS011;4799;50.996;4.754;2023-11-19T06:13:46;31.47;;;7.03;;
8861;SDS011;4799;50.996;4.754;2023-11-19T06:16:13;22.63;;;6.23;;
8861;SDS011;4799;50.996;4.754;2023-11-19T06:18:39;28.07;;;6.50;;
8861;SDS011;4799;50.996;4.754;2023-11-19T06:21:06;24.93;;;6.50;;
8861;SDS011;4799;50.996;4.754;2023-11-19T06:23:32;26.20;;;5.90;;
8861;SDS011;4799;50.996;4.754;2023-11-19T06:25:58;29.10;;;6.77;;
8861;SDS011;4799;50.996;4.754;2023-11-19T06:28:24;32.37;;;7.87;;
8861;SDS011;4799;50.996;4.754;2023-11-19T06:30:50;31.37;;;6.63;;
8861;SDS011;4799;50.996;4.754;2023-11-19T06:33:16;31.33;;;7.23;;
8861;SDS011;4799;50.996;4.754;2023-11-19T06:35:41;29.93;;;6.27;;
8861;SDS011;4799;50.996;4.754;2023-11-19T06:38:07;29.87;;;6.77;;
8861;SDS011;4799;50.996;4.754;2023-11-19T06:40:33;29.43;;;7.07;;
8861;SDS011;4799;50.996;4.754;2023-11-19T06:43:02;31.87;;;6.53;;
8861;SDS011;4799;50.996;4.754;2023-11-19T06:45:29;28.93;;;6.83;;
8861;SDS011;4799;50.996;4.754;2023-11-19T06:47:55;30.87;;;6.60;;
8861;SDS011;4799;50.996;4.754;2023-11-19T06:50:20;30.00;;;7.33;;
8861;SDS011;4799;50.996;4.754;2023-11-19T06:52:46;29.90;;;7.20;;
8861;SDS011;4799;50.996;4.754;2023-11-19T06:55:12;26.83;;;6.50;;
8861;SDS011;4799;50.996;4.754;2023-11-19T06:57:39;30.37;;;6.80;;
8861;SDS011;4799;50.996;4.754;2023-11-19T07:00:05;27.23;;;6.57;;
8861;SDS011;4799;50.996;4.754;2023-11-19T07:02:31;36.17;;;7.43;;
8861;SDS011;4799;50.996;4.754;2023-11-19T07:04:57;25.83;;;6.50;;
8861;SDS011;4799;50.996;4.754;2023-11-19T07:07:23;32.63;;;7.13;;
8861;SDS011;4799;50.996;4.754;2023-11-19T07:09:49;30.03;;;7.17;;
8861;SDS011;4799;50.996;4.754;2023-11-19T07:12:15;27.93;;;7.10;;
8861;SDS011;4799;50.996;4.754;2023-11-19T07:14:41;24.43;;;6.13;;
8861;SDS011;4799;50.996;4.754;2023-11-19T07:17:07;27.20;;;6.83;;
8861;SDS011;4799;50.996;4.754;2023-11-19T07:19:34;25.90;;;6.37;;
8861;SDS011;4799;50.996;4.754;2023-11-19T07:22:01;30.50;;;6.30;;
8861;SDS011;4799;50.996;4.754;2023-11-19T07:24:27;28.03;;;6.93;;
8861;SDS011;4799;50.996;4.754;2023-11-19T07:26:56;24.60;;;6.90;;
8861;SDS011;4799;50.996;4.754;2023-11-19T07:29:22;30.60;;;6.77;;
8861;SDS011;4799;50.996;4.754;2023-11-19T07:31:48;28.20;;;6.20;;
8861;SDS011;4799;50.996;4.754;2023-11-19T07:34:14;29.67;;;6.87;;
8861;SDS011;4799;50.996;4.754;2023-11-19T07:36:40;28.80;;;6.40;;
8861;SDS011;4799;50.996;4.754;2023-11-19T07:39:06;26.27;;;5.50;;
8861;SDS011;4799;50.996;4.754;2023-11-19T07:41:32;29.43;;;6.30;;
8861;SDS011;4799;50.996;4.754;2023-11-19T07:43:58;26.63;;;7.03;;
8861;SDS011;4799;50.996;4.754;2023-11-19T07:46:24;31.07;;;6.60;;
8861;SDS011;4799;50.996;4.754;2023-11-19T07:48:50;30.17;;;7.10;;
8861;SDS011;4799;50.996;4.754;2023-11-19T07:51:17;25.90;;;6.70;;
8861;SDS011;4799;50.996;4.754;2023-11-19T07:53:43;28.90;;;6.93;;
8861;SDS011;4799;50.996;4.754;2023-11-19T07:56:09;29.10;;;6.37;;
8861;SDS011;4799;50.996;4.754;2023-11-19T07:58:35;28.53;;;6.30;;
8861;SDS011;4799;50.996;4.754;2023-11-19T08:01:01;27.67;;;6.83;;
8861;SDS011;4799;50.996;4.754;2023-11-19T08:03:28;30.07;;;6.70;;
8861;SDS011;4799;50.996;4.754;2023-11-19T08:05:57;26.97;;;6.77;;
8861;SDS011;4799;50.996;4.754;2023-11-19T08:08:23;27.63;;;6.13;;
8861;SDS011;4799;50.996;4.754;2023-11-19T08:10:49;30.10;;;6.90;;
8861;SDS011;4799;50.996;4.754;2023-11-19T08:13:17;26.13;;;6.53;;
8861;SDS011;4799;50.996;4.754;2023-11-19T08:15:43;24.73;;;6.43;;
8861;SDS011;4799;50.996;4.754;2023-11-19T08:18:09;28.33;;;6.57;;
8861;SDS011;4799;50.996;4.754;2023-11-19T08:20:34;24.50;;;6.40;;
8861;SDS011;4799;50.996;4.754;2023-11-19T08:23:02;24.90;;;5.80;;
8861;SDS011;4799;50.996;4.754;2023-11-19T08:25:29;23.33;;;6.33;;
8861;SDS011;4799;50.996;4.754;2023-11-19T08:27:54;28.33;;;6.53;;
8861;SDS011;4799;50.996;4.754;2023-11-19T08:30:20;27.90;;;6.80;;
8861;SDS011;4799;50.996;4.754;2023-11-19T08:32:46;24.43;;;6.40;;
8861;SDS011;4799;50.996;4.754;2023-11-19T08:35:12;23.50;;;6.17;;
8861;SDS011;4799;50.996;4.754;2023-11-19T08:37:37;22.40;;;6.40;;
8861;SDS011;4799;50.996;4.754;2023-11-19T08:40:03;22.97;;;5.97;;
8861;SDS011;4799;50.996;4.754;2023-11-19T08:42:30;28.20;;;6.33;;
8861;SDS011;4799;50.996;4.754;2023-11-19T08:44:56;20.17;;;5.93;;
8861;SDS011;4799;50.996;4.754;2023-11-19T08:47:22;24.10;;;6.13;;
8861;SDS011;4799;50.996;4.754;2023-11-19T08:49:51;26.27;;;5.80;;
8861;SDS011;4799;50.996;4.754;2023-11-19T08:52:20;24.07;;;6.17;;
8861;SDS011;4799;50.996;4.754;2023-11-19T08:54:46;22.10;;;5.60;;
8861;SDS011;4799;50.996;4.754;2023-11-19T08:57:11;21.40;;;5.57;;
8861;SDS011;4799;50.996;4.754;2023-11-19T08:59:37;24.80;;;6.13;;
8861;SDS011;4799;50.996;4.754;2023-11-19T09:02:04;19.70;;;5.07;;
8861;SDS011;4799;50.996;4.754;2023-11-19T09:04:31;22.13;;;6.07;;
8861;SDS011;4799;50.996;4.754;2023-11-19T09:06:57;19.50;;;5.23;;
8861;SDS011;4799;50.996;4.754;2023-11-19T09:09:23;24.40;;;5.80;;
8861;SDS011;4799;50.996;4.754;2023-11-19T09:11:49;19.83;;;5.43;;
8861;SDS011;4799;50.996;4.754;2023-11-19T09:14:14;23.17;;;6.00;;
8861;SDS011;4799;50.996;4.754;2023-11-19T09:16:40;22.30;;;5.80;;
8861;SDS011;4799;50.996;4.754;2023-11-19T09:19:06;19.13;;;5.40;;
8861;SDS011;4799;50.996;4.754;2023-11-19T09:21:32;21.03;;;5.70;;
8861;SDS011;4799;50.996;4.754;2023-11-19T09:23:59;14.30;;;5.27;;
8861;SDS011;4799;50.996;4.754;2023-11-19T09:26:25;20.07;;;5.33;;
8861;SDS011;4799;50.996;4.754;2023-11-19T09:28:51;21.13;;;5.43;;
8861;SDS011;4799;50.996;4.754;2023-11-19T09:31:17;23.03;;;5.50;;
8861;SDS011;4799;50.996;4.754;2023-11-19T09:33:44;21.63;;;5.77;;
8861;SDS011;4799;50.996;4.754;2023-11-19T09:36:13;18.53;;;5.40;;
8861;SDS011;4799;50.996;4.754;2023-11-19T09:38:48;23.00;;;5.40;;
8861;SDS011;4799;50.996;4.754;2023-11-19T09:41:14;23.10;;;5.00;;
8861;SDS011;4799;50.996;4.754;2023-11-19T09:43:40;17.57;;;4.83;;
8861;SDS011;4799;50.996;4.754;2023-11-19T09:46:09;18.03;;;4.87;;
8861;SDS011;4799;50.996;4.754;2023-11-19T09:48:38;22.53;;;8.00;;
8861;SDS011;4799;50.996;4.754;2023-11-19T09:51:11;21.80;;;5.90;;
8861;SDS011;4799;50.996;4.754;2023-11-19T09:53:37;23.00;;;6.20;;
8861;SDS011;4799;50.996;4.754;2023-11-19T09:56:04;20.37;;;5.47;;
8861;SDS011;4799;50.996;4.754;2023-11-19T09:58:31;19.80;;;5.07;;
8861;SDS011;4799;50.996;4.754;2023-11-19T10:00:57;21.90;;;5.77;;
8861;SDS011;4799;50.996;4.754;2023-11-19T10:03:36;20.07;;;5.77;;
8861;SDS011;4799;50.996;4.754;2023-11-19T10:06:04;13.57;;;4.33;;
8861;SDS011;4799;50.996;4.754;2023-11-19T10:08:32;17.87;;;4.90;;
8861;SDS011;4799;50.996;4.754;2023-11-19T10:10:58;16.87;;;4.60;;
8861;SDS011;4799;50.996;4.754;2023-11-19T10:13:27;16.53;;;5.30;;
8861;SDS011;4799;50.996;4.754;2023-11-19T10:15:53;15.83;;;4.53;;
8861;SDS011;4799;50.996;4.754;2023-11-19T10:18:26;14.73;;;4.57;;
8861;SDS011;4799;50.996;4.754;2023-11-19T10:20:52;13.97;;;4.30;;
8861;SDS011;4799;50.996;4.754;2023-11-19T10:23:20;18.40;;;5.80;;
8861;SDS011;4799;50.996;4.754;2023-11-19T10:25:46;19.60;;;5.00;;
8861;SDS011;4799;50.996;4.754;2023-11-19T10:28:12;18.70;;;4.70;;
8861;SDS011;4799;50.996;4.754;2023-11-19T10:30:41;16.63;;;4.70;;
8861;SDS011;4799;50.996;4.754;2023-11-19T10:33:11;15.27;;;4.57;;
8861;SDS011;4799;50.996;4.754;2023-11-19T10:35:58;14.83;;;4.30;;
8861;SDS011;4799;50.996;4.754;2023-11-19T10:38:24;16.30;;;4.57;;
8861;SDS011;4799;50.996;4.754;2023-11-19T10:40:51;14.67;;;4.57;;
8861;SDS011;4799;50.996;4.754;2023-11-19T10:43:20;15.10;;;4.93;;
8861;SDS011;4799;50.996;4.754;2023-11-19T10:45:48;16.07;;;4.87;;
8861;SDS011;4799;50.996;4.754;2023-11-19T10:48:14;19.27;;;5.03;;
8861;SDS011;4799;50.996;4.754;2023-11-19T10:50:41;14.33;;;4.20;;
8861;SDS011;4799;50.996;4.754;2023-11-19T10:53:09;18.77;;;4.90;;
8861;SDS011;4799;50.996;4.754;2023-11-19T10:55:38;18.33;;;4.90;;
8861;SDS011;4799;50.996;4.754;2023-11-19T10:58:08;14.67;;;4.80;;
8861;SDS011;4799;50.996;4.754;2023-11-19T11:00:44;15.27;;;5.00;;
8861;SDS011;4799;50.996;4.754;2023-11-19T11:03:15;19.60;;;5.20;;
8861;SDS011;4799;50.996;4.754;2023-11-19T11:05:43;19.67;;;5.03;;
8861;SDS011;4799;50.996;4.754;2023-11-19T11:08:12;17.70;;;5.50;;
8861;SDS011;4799;50.996;4.754;2023-11-19T11:10:39;16.53;;;4.83;;
8861;SDS011;4799;50.996;4.754;2023-11-19T11:13:09;17.60;;;5.17;;
8861;SDS011;4799;50.996;4.754;2023-11-19T11:15:35;14.90;;;4.77;;
8861;SDS011;4799;50.996;4.754;2023-11-19T11:18:02;17.00;;;4.80;;
8861;SDS011;4799;50.996;4.754;2023-11-19T11:20:31;16.70;;;4.87;;
8861;SDS011;4799;50.996;4.754;2023-11-19T11:31:21;16.93;;;4.23;;
8861;SDS011;4799;50.996;4.754;2023-11-19T11:36:31;18.90;;;4.93;;
8861;SDS011;4799;50.996;4.754;2023-11-19T11:39:21;18.47;;;4.50;;
8861;SDS011;4799;50.996;4.754;2023-11-19T11:42:02;16.90;;;4.60;;
8861;SDS011;4799;50.996;4.754;2023-11-19T11:44:58;20.30;;;4.50;;
8861;SDS011;4799;50.996;4.754;2023-11-19T11:53:22;15.63;;;4.80;;
8861;SDS011;4799;50.996;4.754;2023-11-19T11:58:18;17.67;;;4.93;;
8861;SDS011;4799;50.996;4.754;2023-11-19T12:00:45;17.33;;;4.73;;
8861;SDS011;4799;50.996;4.754;2023-11-19T12:03:13;16.47;;;4.53;;
8861;SDS011;4799;50.996;4.754;2023-11-19T12:05:45;19.17;;;4.83;;
8861;SDS011;4799;50.996;4.754;2023-11-19T12:08:11;17.70;;;4.70;;
8861;SDS011;4799;50.996;4.754;2023-11-19T12:10:47;15.73;;;4.90;;
8861;SDS011;4799;50.996;4.754;2023-11-19T12:13:17;14.13;;;4.80;;
8861;SDS011;4799;50.996;4.754;2023-11-19T12:18:29;15.70;;;4.97;;
8861;SDS011;4799;50.996;4.754;2023-11-19T12:21:01;17.73;;;5.10;;
8861;SDS011;4799;50.996;4.754;2023-11-19T12:23:31;17.43;;;4.80;;
8861;SDS011;4799;50.996;4.754;2023-11-19T12:25:57;16.57;;;4.83;;
8861;SDS011;4799;50.996;4.754;2023-11-19T12:28:24;16.03;;;4.80;;
8861;SDS011;4799;50.996;4.754;2023-11-19T12:30:51;21.43;;;5.47;;
8861;SDS011;4799;50.996;4.754;2023-11-19T12:33:21;17.27;;;5.20;;
8861;SDS011;4799;50.996;4.754;2023-11-19T12:35:47;18.03;;;5.20;;
8861;SDS011;4799;50.996;4.754;2023-11-19T12:38:20;15.60;;;5.00;;
8861;SDS011;4799;50.996;4.754;2023-11-19T12:40:47;14.70;;;4.50;;
8861;SDS011;4799;50.996;4.754;2023-11-19T12:43:22;18.13;;;4.50;;
8861;SDS011;4799;50.996;4.754;2023-11-19T12:45:48;16.13;;;4.20;;
8861;SDS011;4799;50.996;4.754;2023-11-19T12:48:14;13.53;;;3.90;;
8861;SDS011;4799;50.996;4.754;2023-11-19T12:53:26;10.93;;;3.60;;
8861;SDS011;4799;50.996;4.754;2023-11-19T12:55:54;15.07;;;4.67;;
8861;SDS011;4799;50.996;4.754;2023-11-19T12:58:33;15.10;;;4.50;;
8861;SDS011;4799;50.996;4.754;2023-11-19T13:01:01;16.33;;;4.60;;
8861;SDS011;4799;50.996;4.754;2023-11-19T13:03:29;12.33;;;4.07;;
8861;SDS011;4799;50.996;4.754;2023-11-19T13:06:17;17.30;;;4.60;;
8861;SDS011;4799;50.996;4.754;2023-11-19T13:08:45;17.80;;;5.30;;
8861;SDS011;4799;50.996;4.754;2023-11-19T13:11:34;12.10;;;4.07;;
8861;SDS011;4799;50.996;4.754;2023-11-19T13:14:05;16.17;;;4.30;;
8861;SDS011;4799;50.996;4.754;2023-11-19T13:16:33;18.07;;;4.80;;
8861;SDS011;4799;50.996;4.754;2023-11-19T13:19:01;16.97;;;4.40;;
8861;SDS011;4799;50.996;4.754;2023-11-19T13:21:28;19.40;;;4.77;;
8861;SDS011;4799;50.996;4.754;2023-11-19T13:23:54;15.17;;;4.80;;
8861;SDS011;4799;50.996;4.754;2023-11-19T13:26:20;17.70;;;4.93;;
8861;SDS011;4799;50.996;4.754;2023-11-19T13:28:47;16.17;;;4.53;;
8861;SDS011;4799;50.996;4.754;2023-11-19T13:31:12;16.17;;;5.27;;
8861;SDS011;4799;50.996;4.754;2023-11-19T13:33:39;14.83;;;4.73;;
8861;SDS011;4799;50.996;4.754;2023-11-19T13:36:05;17.33;;;5.50;;
8861;SDS011;4799;50.996;4.754;2023-11-19T13:38:33;15.53;;;5.07;;
8861;SDS011;4799;50.996;4.754;2023-11-19T13:40:59;17.60;;;4.93;;
8861;SDS011;4799;50.996;4.754;2023-11-19T13:43:25;16.40;;;5.17;;
8861;SDS011;4799;50.996;4.754;2023-11-19T13:45:53;18.63;;;5.30;;
8861;SDS011;4799;50.996;4.754;2023-11-19T13:48:23;15.80;;;4.93;;
8861;SDS011;4799;50.996;4.754;2023-11-19T13:50:49;14.77;;;4.50;;
8861;SDS011;4799;50.996;4.754;2023-11-19T13:53:15;15.13;;;4.53;;
8861;SDS011;4799;50.996;4.754;2023-11-19T13:55:41;15.07;;;4.50;;
8861;SDS011;4799;50.996;4.754;2023-11-19T13:58:08;17.30;;;4.33;;
8861;SDS011;4799;50.996;4.754;2023-11-19T14:00:34;14.40;;;4.37;;
8861;SDS011;4799;50.996;4.754;2023-11-19T14:03:00;14.60;;;4.10;;
8861;SDS011;4799;50.996;4.754;2023-11-19T14:05:25;12.40;;;4.03;;
8861;SDS011;4799;50.996;4.754;2023-11-19T14:07:51;11.60;;;4.20;;
8861;SDS011;4799;50.996;4.754;2023-11-19T14:10:18;11.97;;;4.30;;
8861;SDS011;4799;50.996;4.754;2023-11-19T14:12:44;12.77;;;4.00;;
8861;SDS011;4799;50.996;4.754;2023-11-19T14:15:10;12.90;;;4.30;;
8861;SDS011;4799;50.996;4.754;2023-11-19T14:17:39;19.97;;;5.30;;
8861;SDS011;4799;50.996;4.754;2023-11-19T14:20:05;18.40;;;5.33;;
8861;SDS011;4799;50.996;4.754;2023-11-19T14:22:47;17.73;;;4.90;;
8861;SDS011;4799;50.996;4.754;2023-11-19T14:25:14;13.13;;;4.23;;
8861;SDS011;4799;50.996;4.754;2023-11-19T14:27:41;14.13;;;4.33;;
8861;SDS011;4799;50.996;4.754;2023-11-19T14:30:08;18.40;;;5.00;;
8861;SDS011;4799;50.996;4.754;2023-11-19T14:32:36;14.93;;;4.30;;
8861;SDS011;4799;50.996;4.754;2023-11-19T14:35:06;18.03;;;4.67;;
8861;SDS011;4799;50.996;4.754;2023-11-19T14:37:33;16.80;;;5.07;;
8861;SDS011;4799;50.996;4.754;2023-11-19T14:39:59;16.33;;;5.33;;
8861;SDS011;4799;50.996;4.754;2023-11-19T14:42:25;16.20;;;5.40;;
8861;SDS011;4799;50.996;4.754;2023-11-19T14:44:52;16.43;;;4.73;;
8861;SDS011;4799;50.996;4.754;2023-11-19T14:47:18;20.70;;;4.90;;
8861;SDS011;4799;50.996;4.754;2023-11-19T14:49:44;18.70;;;5.40;;
8861;SDS011;4799;50.996;4.754;2023-11-19T14:52:10;16.50;;;4.60;;
8861;SDS011;4799;50.996;4.754;2023-11-19T14:54:36;18.53;;;5.20;;
8861;SDS011;4799;50.996;4.754;2023-11-19T14:57:03;21.73;;;5.23;;
8861;SDS011;4799;50.996;4.754;2023-11-19T14:59:29;20.53;;;6.13;;
8861;SDS011;4799;50.996;4.754;2023-11-19T15:01:55;19.67;;;5.80;;
8861;SDS011;4799;50.996;4.754;2023-11-19T15:04:21;16.43;;;4.70;;
8861;SDS011;4799;50.996;4.754;2023-11-19T15:06:46;16.73;;;4.87;;
8861;SDS011;4799;50.996;4.754;2023-11-19T15:09:12;19.00;;;4.97;;
8861;SDS011;4799;50.996;4.754;2023-11-19T15:11:45;20.27;;;5.00;;
8861;SDS011;4799;50.996;4.754;2023-11-19T15:14:15;16.37;;;4.97;;
8861;SDS011;4799;50.996;4.754;2023-11-19T15:16:44;16.57;;;5.10;;
8861;SDS011;4799;50.996;4.754;2023-11-19T15:19:10;17.53;;;4.87;;
8861;SDS011;4799;50.996;4.754;2023-11-19T15:21:38;16.00;;;4.90;;
8861;SDS011;4799;50.996;4.754;2023-11-19T15:24:04;17.47;;;4.90;;
8861;SDS011;4799;50.996;4.754;2023-11-19T15:26:33;17.00;;;5.30;;
8861;SDS011;4799;50.996;4.754;2023-11-19T15:28:59;18.27;;;5.53;;